Time;durP1;ratioP1;P1;durP2;ratioP2;P2;SDS_P1;SDS_P2;PMS_P1;PMS_P2;Temp;Humidity;BMP_temperature;BMP_pressure;BME280_temperature;BME280_humidity;BME280_pressure;Samples;Min_cycle;Max_cycle;Signal;HPM_P1;HPM_P2
2021/03/07 00:01:10;;;;;;;10.78;7.65;;;;;;;2.39;61.17;100960.25;123106;1105;104309;-81
2021/03/07 00:03:37;;;;;;;8.50;6.55;;;;;;;2.37;60.85;100962.83;122893;1105;104389;-83
2021/03/07 00:06:18;;;;;;;12.13;8.27;;;;;;;2.40;60.92;100957.65;122590;1108;104277;-84
2021/03/07 00:08:44;;;;;;;9.95;7.58;;;;;;;2.38;60.48;100954.09;122758;1109;104338;-81
2021/03/07 00:11:20;;;;;;;9.50;7.43;;;;;;;2.40;60.38;100947.13;123296;1106;104469;-83
2021/03/07 00:14:02;;;;;;;10.40;7.40;;;;;;;2.39;61.51;100945.36;123599;1109;104406;-80
2021/03/07 00:16:28;;;;;;;9.40;7.15;;;;;;;2.39;61.17;100947.11;123658;1109;104305;-84
2021/03/07 00:18:54;;;;;;;9.70;7.28;;;;;;;2.44;60.77;100941.06;123416;1106;104342;-80
2021/03/07 00:21:21;;;;;;;8.27;7.27;;;;;;;2.42;61.33;100942.77;124030;1105;104290;-80
2021/03/07 00:23:47;;;;;;;9.73;7.10;;;;;;;2.41;61.32;100948.00;123821;1106;104350;-83
2021/03/07 00:26:16;;;;;;;6.77;6.20;;;;;;;2.39;61.27;100944.48;123632;1105;104306;-82
2021/03/07 00:28:43;;;;;;;7.83;7.12;;;;;;;2.37;60.91;100936.55;123402;1105;104325;-80
2021/03/07 00:31:09;;;;;;;10.83;7.23;;;;;;;2.37;61.99;100933.92;123407;1105;104332;-81
2021/03/07 00:34:07;;;;;;;8.47;7.20;;;;;;;2.37;62.10;100936.55;123599;1105;104414;-82
2021/03/07 00:36:34;;;;;;;8.60;7.45;;;;;;;2.40;62.35;100930.45;123669;1104;104720;-83
2021/03/07 00:39:01;;;;;;;9.10;7.50;;;;;;;2.40;61.80;100919.94;123614;1105;104422;-82
2021/03/07 00:41:39;;;;;;;9.83;8.93;;;;;;;2.42;61.86;100924.36;123521;1105;104203;-82
2021/03/07 00:44:07;;;;;;;10.43;9.53;;;;;;;2.42;61.73;100913.84;123447;1105;104195;-81
2021/03/07 00:46:41;;;;;;;8.75;7.95;;;;;;;2.41;61.75;100901.56;123328;1105;104287;-83
2021/03/07 00:49:08;;;;;;;9.90;8.28;;;;;;;2.43;61.56;100907.73;123266;1105;104230;-82
2021/03/07 00:51:35;;;;;;;9.33;8.40;;;;;;;2.45;61.74;100900.77;123186;1105;104344;-82
2021/03/07 00:54:12;;;;;;;10.03;7.50;;;;;;;2.42;62.76;100905.96;123337;1105;104858;-83
2021/03/07 00:56:38;;;;;;;10.05;9.03;;;;;;;2.42;62.19;100905.09;123392;1105;104928;-83
2021/03/07 00:59:21;;;;;;;8.80;6.80;;;;;;;2.39;62.39;100903.30;123283;1105;104303;-84
2021/03/07 01:01:48;;;;;;;9.80;8.50;;;;;;;2.44;62.53;100901.63;123440;1106;104345;-82
2021/03/07 01:04:17;;;;;;;8.38;7.25;;;;;;;2.41;62.79;100877.90;123479;1104;104229;-82
2021/03/07 01:06:46;;;;;;;8.55;7.60;;;;;;;2.42;63.29;100881.44;123416;1106;104325;-82
2021/03/07 01:09:13;;;;;;;10.47;9.37;;;;;;;2.42;63.66;100874.42;123391;1105;104226;-81
2021/03/07 01:11:50;;;;;;;14.33;7.87;;;;;;;2.43;63.45;100878.82;123230;1105;105356;-82
2021/03/07 01:14:17;;;;;;;8.63;7.62;;;;;;;2.47;63.26;100882.39;123283;1105;104283;-82
2021/03/07 01:16:44;;;;;;;10.43;8.80;;;;;;;2.48;63.61;100873.65;123459;1105;104329;-83
2021/03/07 01:19:12;;;;;;;7.63;6.93;;;;;;;2.50;64.15;100869.28;123395;1105;105061;-80
2021/03/07 01:21:38;;;;;;;8.63;7.60;;;;;;;2.48;64.30;100864.00;123303;1105;104405;-84
2021/03/07 01:24:06;;;;;;;7.97;7.20;;;;;;;2.46;64.81;100859.58;123360;1105;104371;-80
2021/03/07 01:26:32;;;;;;;9.53;7.30;;;;;;;2.48;64.08;100848.23;123422;1105;104220;-83
2021/03/07 01:28:58;;;;;;;7.87;7.08;;;;;;;2.50;64.57;100845.62;123387;1106;104983;-81
2021/03/07 01:31:25;;;;;;;7.67;6.80;;;;;;;2.47;65.01;100849.08;123501;1105;104399;-81
2021/03/07 01:34:06;;;;;;;10.43;7.90;;;;;;;2.50;64.41;100837.73;123323;1105;104459;-82
2021/03/07 01:36:33;;;;;;;8.20;7.40;;;;;;;2.51;64.48;100832.48;123357;1105;104284;-84
2021/03/07 01:38:59;;;;;;;7.87;6.53;;;;;;;2.53;64.38;100831.63;123319;1105;104451;-82
2021/03/07 01:41:25;;;;;;;7.55;6.78;;;;;;;2.50;65.31;100824.59;123466;1105;104990;-81
2021/03/07 01:43:52;;;;;;;7.10;6.40;;;;;;;2.48;65.07;100814.05;123295;1105;104366;-81
2021/03/07 01:46:19;;;;;;;7.25;6.50;;;;;;;2.49;65.44;100802.69;123285;1106;104310;-81
2021/03/07 01:48:47;;;;;;;7.17;6.58;;;;;;;2.45;65.85;100808.77;123289;1105;104233;-85
2021/03/07 01:51:15;;;;;;;8.35;7.20;;;;;;;2.44;66.15;100796.47;123268;1105;104398;-81
2021/03/07 01:53:46;;;;;;;11.55;7.20;;;;;;;2.46;66.32;100794.73;123288;1105;104373;-81
2021/03/07 01:56:24;;;;;;;10.00;8.53;;;;;;;2.47;65.93;100800.89;122974;1105;104396;-83
2021/03/07 01:59:06;;;;;;;9.83;8.55;;;;;;;2.51;66.01;100798.31;123279;1105;104229;-81
2021/03/07 02:01:35;;;;;;;9.93;8.30;;;;;;;2.53;66.63;100779.05;123518;1105;105018;-82
2021/03/07 02:04:02;;;;;;;9.57;8.47;;;;;;;2.54;66.61;100780.83;123243;1105;104210;-83
2021/03/07 02:06:29;;;;;;;10.85;9.13;;;;;;;2.54;66.29;100779.06;123271;1105;104370;-82
2021/03/07 02:08:57;;;;;;;8.43;7.50;;;;;;;2.51;66.62;100766.77;123394;1105;104635;-81
2021/03/07 02:11:23;;;;;;;10.90;8.27;;;;;;;2.50;67.24;100759.73;123242;1105;104717;-86
2021/03/07 02:13:50;;;;;;;10.03;9.03;;;;;;;2.49;66.97;100763.25;123504;1105;104303;-82
2021/03/07 02:16:19;;;;;;;11.55;8.75;;;;;;;2.47;66.68;100778.10;123375;1105;104348;-82
2021/03/07 02:18:50;;;;;;;9.80;8.55;;;;;;;2.54;66.10;100754.53;123331;1105;104328;-80
2021/03/07 02:21:19;;;;;;;9.18;7.97;;;;;;;2.50;67.30;100761.48;123258;1105;104274;-81
2021/03/07 02:24:04;;;;;;;8.83;7.60;;;;;;;2.49;67.32;100772.86;123283;1105;104348;-83
2021/03/07 02:26:36;;;;;;;9.63;8.13;;;;;;;2.53;66.38;100761.52;123365;1106;104236;-82
2021/03/07 02:29:03;;;;;;;9.08;8.08;;;;;;;2.53;67.07;100764.14;123297;1105;104479;-82
2021/03/07 02:31:30;;;;;;;8.78;7.97;;;;;;;2.56;66.85;100760.67;123298;1105;104277;-81
2021/03/07 02:34:07;;;;;;;8.25;7.17;;;;;;;2.60;66.97;100759.84;123537;1105;105037;-85
2021/03/07 02:36:39;;;;;;;9.47;7.60;;;;;;;2.62;66.26;100747.61;123377;1105;104337;-81
2021/03/07 02:39:06;;;;;;;13.30;9.05;;;;;;;2.61;66.82;100746.74;123340;1105;104339;-81
2021/03/07 02:41:33;;;;;;;8.83;7.97;;;;;;;2.59;66.91;100747.59;123344;1105;104466;-83
2021/03/07 02:44:08;;;;;;;9.50;7.90;;;;;;;2.60;66.73;100741.44;123185;1105;104345;-81
2021/03/07 02:46:36;;;;;;;9.38;8.35;;;;;;;2.58;66.84;100745.81;123254;1105;105130;-83
2021/03/07 02:49:06;;;;;;;9.93;8.63;;;;;;;2.57;66.94;100738.78;123260;1105;104232;-82
2021/03/07 02:51:34;;;;;;;8.90;7.90;;;;;;;2.57;66.94;100731.77;123373;1105;104277;-81
2021/03/07 02:54:07;;;;;;;13.07;10.60;;;;;;;2.58;66.91;100732.67;123528;1105;104252;-82
2021/03/07 02:56:35;;;;;;;9.83;8.83;;;;;;;2.59;67.37;100723.92;123365;1105;104284;-82
2021/03/07 02:59:18;;;;;;;8.73;7.90;;;;;;;2.57;66.97;100723.88;123326;1105;104664;-81
2021/03/07 03:01:47;;;;;;;8.65;7.75;;;;;;;2.55;66.56;100724.75;123319;1105;104207;-82
2021/03/07 03:04:14;;;;;;;10.23;8.03;;;;;;;2.54;67.10;100715.97;123469;1105;104358;-81
2021/03/07 03:06:56;;;;;;;8.23;7.27;;;;;;;2.54;66.47;100710.70;123223;1106;104415;-83
2021/03/07 03:09:23;;;;;;;9.70;8.30;;;;;;;2.55;66.28;100712.48;123325;1105;104252;-81
2021/03/07 03:11:52;;;;;;;8.80;7.85;;;;;;;2.55;65.74;100714.23;123213;1105;105037;-82
2021/03/07 03:14:34;;;;;;;7.60;6.80;;;;;;;2.55;67.04;100704.59;123067;1106;104254;-81
2021/03/07 03:17:02;;;;;;;7.92;7.33;;;;;;;2.58;66.76;100712.50;123286;1105;105287;-82
2021/03/07 03:19:45;;;;;;;9.33;8.23;;;;;;;2.60;65.91;100702.00;123091;1105;104432;-81
2021/03/07 03:22:12;;;;;;;9.35;7.22;;;;;;;2.58;66.17;100719.52;123462;1105;104306;-82
2021/03/07 03:24:53;;;;;;;7.97;6.83;;;;;;;2.53;66.28;100706.30;123477;1105;104345;-87
2021/03/07 03:27:20;;;;;;;9.65;7.30;;;;;;;2.53;65.81;100711.56;123191;1105;104396;-81
2021/03/07 03:29:46;;;;;;;7.40;6.70;;;;;;;2.58;65.96;100706.38;123270;1106;104412;-81
2021/03/07 03:32:13;;;;;;;7.00;6.40;;;;;;;2.59;65.57;100695.00;123317;1105;104240;-81
2021/03/07 03:34:40;;;;;;;9.68;7.53;;;;;;;2.58;66.35;100685.34;123350;1105;104292;-81
2021/03/07 03:37:21;;;;;;;7.30;6.45;;;;;;;2.60;66.30;100666.09;123005;1109;104416;-81
2021/03/07 03:39:48;;;;;;;12.28;7.05;;;;;;;2.60;66.13;100680.96;122849;1109;104565;-82
2021/03/07 03:42:15;;;;;;;7.17;6.50;;;;;;;2.64;65.39;100682.79;123079;1109;104422;-88
2021/03/07 03:44:42;;;;;;;9.80;7.30;;;;;;;2.63;65.64;100678.39;122904;1109;104453;-82
2021/03/07 03:47:10;;;;;;;8.80;7.75;;;;;;;2.62;65.61;100671.36;122967;1109;104406;-81
2021/03/07 03:49:53;;;;;;;10.47;7.10;;;;;;;2.66;65.67;100683.67;123025;1109;104504;-91
2021/03/07 03:52:23;;;;;;;7.93;6.27;;;;;;;2.65;65.40;100669.66;123011;1109;104430;-81
2021/03/07 03:54:56;;;;;;;11.20;7.72;;;;;;;2.73;65.45;100671.47;123034;1109;104443;-87
2021/03/07 03:57:26;;;;;;;10.40;7.50;;;;;;;2.73;65.49;100664.45;122950;1107;104440;-80
2021/03/07 03:59:56;;;;;;;6.78;6.17;;;;;;;2.69;65.55;100662.66;123103;1109;104469;-83
2021/03/07 04:02:25;;;;;;;8.13;7.30;;;;;;;2.70;65.05;100656.53;123434;1109;104345;-82
2021/03/07 04:04:54;;;;;;;8.63;7.83;;;;;;;2.70;65.64;100659.16;123265;1109;105392;-80
2021/03/07 04:07:22;;;;;;;9.38;7.58;;;;;;;2.73;65.22;100655.69;123006;1109;104294;-80
2021/03/07 04:09:50;;;;;;;10.78;7.40;;;;;;;2.72;66.03;100660.08;122877;1109;104414;-81
2021/03/07 04:12:18;;;;;;;10.90;7.00;;;;;;;2.72;65.83;100649.56;122567;1109;104409;-81
2021/03/07 04:14:46;;;;;;;7.50;6.37;;;;;;;2.72;65.80;100643.40;122641;1105;104444;-83
2021/03/07 04:17:15;;;;;;;7.23;6.60;;;;;;;2.69;65.58;100644.25;123040;1105;104280;-81
2021/03/07 04:19:43;;;;;;;7.65;6.95;;;;;;;2.66;65.30;100646.86;122763;1105;104395;-81
2021/03/07 04:22:12;;;;;;;7.63;6.53;;;;;;;2.70;65.17;100651.27;122827;1106;104391;-84
2021/03/07 04:24:39;;;;;;;6.77;6.17;;;;;;;2.68;65.49;100637.25;122845;1105;104232;-87
2021/03/07 04:27:06;;;;;;;7.20;6.50;;;;;;;2.69;66.31;100636.36;124422;1105;104271;-82
2021/03/07 04:29:38;;;;;;;8.70;7.80;;;;;;;2.67;65.94;100625.83;125796;1105;102796;-93
2021/03/07 04:32:05;;;;;;;11.50;9.13;;;;;;;2.67;65.28;100630.22;125679;1105;104752;-79
2021/03/07 04:34:34;;;;;;;8.07;7.07;;;;;;;2.67;65.81;100623.20;125593;1105;102792;-80
2021/03/07 04:37:01;;;;;;;6.27;5.67;;;;;;;2.72;66.05;100630.25;125828;1105;101810;-86
2021/03/07 04:39:28;;;;;;;7.70;6.33;;;;;;;2.73;66.09;100622.37;125754;1105;104284;-84
2021/03/07 04:41:54;;;;;;;10.05;7.28;;;;;;;2.77;65.29;100628.55;123675;1105;104239;-82
2021/03/07 04:44:36;;;;;;;7.03;6.33;;;;;;;2.80;64.89;100621.58;123283;1105;104208;-81
2021/03/07 04:47:03;;;;;;;10.03;6.80;;;;;;;2.79;65.22;100611.91;123477;1105;104832;-81
2021/03/07 04:49:30;;;;;;;7.47;6.83;;;;;;;2.75;65.16;100631.17;123380;1105;104344;-85
2021/03/07 04:51:56;;;;;;;8.03;7.22;;;;;;;2.73;65.56;100613.61;123518;1105;104306;-81
2021/03/07 04:54:23;;;;;;;6.80;5.62;;;;;;;2.77;65.65;100604.88;123405;1105;104380;-81
2021/03/07 04:56:50;;;;;;;8.13;7.42;;;;;;;2.74;66.11;100613.62;123298;1105;105018;-82
2021/03/07 04:59:17;;;;;;;9.00;7.60;;;;;;;2.76;65.45;100609.27;123500;1105;104287;-81
2021/03/07 05:01:44;;;;;;;6.75;6.15;;;;;;;2.76;66.07;100608.37;123413;1105;104251;-81
2021/03/07 05:04:11;;;;;;;8.43;7.07;;;;;;;2.74;65.40;100610.13;123272;1105;104567;-81
2021/03/07 05:06:40;;;;;;;7.05;6.42;;;;;;;2.74;65.23;100600.47;123265;1105;104351;-84
2021/03/07 05:09:10;;;;;;;9.18;6.72;;;;;;;2.75;65.35;100604.87;123459;1106;104976;-83
2021/03/07 05:11:39;;;;;;;7.92;6.58;;;;;;;2.75;64.83;100611.89;123577;1106;104302;-84
2021/03/07 05:14:07;;;;;;;9.27;7.60;;;;;;;2.77;65.61;100597.89;123270;1105;104258;-82
2021/03/07 05:16:34;;;;;;;7.85;7.10;;;;;;;2.75;64.68;100594.34;123424;1105;104246;-82
2021/03/07 05:19:15;;;;;;;7.90;7.17;;;;;;;2.74;65.41;100603.09;123263;1108;104402;-80
2021/03/07 05:21:42;;;;;;;8.48;7.40;;;;;;;2.69;65.87;100583.77;123040;1109;104411;-82
2021/03/07 05:24:10;;;;;;;7.00;6.30;;;;;;;2.69;66.15;100586.39;123253;1105;104382;-82
2021/03/07 05:26:37;;;;;;;7.30;6.75;;;;;;;2.69;64.90;100586.39;123398;1105;104339;-80
2021/03/07 05:29:04;;;;;;;8.25;7.45;;;;;;;2.68;65.16;100587.28;123220;1105;104255;-83
2021/03/07 05:31:30;;;;;;;8.98;8.08;;;;;;;2.68;65.56;100584.66;123277;1105;104255;-81
2021/03/07 05:33:57;;;;;;;7.05;6.45;;;;;;;2.72;65.27;100589.07;123097;1105;104586;-83
2021/03/07 05:36:24;;;;;;;7.58;6.85;;;;;;;2.74;64.99;100581.19;123372;1105;104453;-83
2021/03/07 05:39:05;;;;;;;6.83;6.13;;;;;;;2.74;63.91;100579.43;123071;1105;104990;-81
2021/03/07 05:41:32;;;;;;;7.30;6.60;;;;;;;2.72;64.41;100581.19;122911;1105;104478;-81
2021/03/07 05:43:59;;;;;;;7.70;6.40;;;;;;;2.71;64.14;100583.80;122735;1105;104382;-80
2021/03/07 05:46:26;;;;;;;6.90;6.28;;;;;;;2.74;63.70;100584.69;122887;1105;105024;-81
2021/03/07 05:48:53;;;;;;;6.63;5.97;;;;;;;2.75;64.29;100581.20;122960;1105;104335;-82
2021/03/07 05:51:20;;;;;;;6.23;5.83;;;;;;;2.77;64.14;100586.47;122863;1105;104527;-80
2021/03/07 05:53:57;;;;;;;7.28;5.75;;;;;;;2.78;63.15;100581.22;122662;1105;104364;-81
2021/03/07 05:56:24;;;;;;;7.35;6.70;;;;;;;2.78;63.43;100581.22;122815;1105;104383;-85
2021/03/07 05:58:50;;;;;;;10.32;7.85;;;;;;;2.78;63.74;100583.84;122853;1105;104425;-80
2021/03/07 06:01:17;;;;;;;8.20;7.37;;;;;;;2.76;64.27;100585.59;122976;1105;104290;-82
2021/03/07 06:03:44;;;;;;;8.15;7.25;;;;;;;2.77;64.35;100579.48;122959;1105;104674;-80
2021/03/07 06:06:11;;;;;;;7.30;6.50;;;;;;;2.82;64.08;100577.73;123299;1105;104245;-80
2021/03/07 06:08:38;;;;;;;8.00;7.20;;;;;;;2.82;64.93;100569.84;123451;1105;104349;-85
2021/03/07 06:11:04;;;;;;;7.28;6.60;;;;;;;2.78;64.38;100570.69;123333;1104;104249;-81
2021/03/07 06:14:28;;;;;;;8.50;6.97;;;;;;;2.80;64.49;100584.75;123139;1105;104255;-83
2021/03/07 06:17:14;;;;;;;12.18;7.22;;;;;;;2.77;64.38;100576.84;123108;1109;104405;-81
2021/03/07 06:20:04;;;;;;;6.95;6.35;;;;;;;2.83;64.65;100573.38;123138;1109;104309;-81
2021/03/07 06:22:32;;;;;;;6.23;5.63;;;;;;;2.86;63.66;100583.91;123209;1105;104520;-80
2021/03/07 06:25:07;;;;;;;5.80;5.33;;;;;;;2.82;62.65;100568.98;123175;1105;104335;-84
2021/03/07 06:27:48;;;;;;;6.72;5.78;;;;;;;2.87;62.27;100584.81;123209;1105;104316;-80
2021/03/07 06:30:17;;;;;;;5.73;5.13;;;;;;;2.84;61.22;100581.28;123485;1106;104574;-84
2021/03/07 06:32:52;;;;;;;5.07;4.63;;;;;;;2.85;60.22;100582.14;123484;1105;104239;-84
2021/03/07 06:35:30;;;;;;;4.50;4.10;;;;;;;2.83;60.51;100576.88;123381;1105;104233;-82
2021/03/07 06:38:02;;;;;;;5.75;5.35;;;;;;;2.86;61.14;100569.89;123553;1105;104252;-82
2021/03/07 06:40:36;;;;;;;6.27;5.77;;;;;;;2.92;62.02;100588.34;123303;1105;104226;-84
2021/03/07 06:43:19;;;;;;;6.00;5.50;;;;;;;2.92;61.19;100583.98;123170;1105;105314;-83
2021/03/07 06:45:54;;;;;;;6.17;5.67;;;;;;;2.94;62.07;100576.95;123382;1105;104229;-82
2021/03/07 06:48:33;;;;;;;6.80;6.30;;;;;;;2.96;62.60;100588.39;123277;1105;104329;-84
2021/03/07 06:51:00;;;;;;;7.17;6.47;;;;;;;2.86;63.08;100576.02;123343;1105;104389;-82
2021/03/07 06:53:35;;;;;;;8.07;7.27;;;;;;;2.89;62.48;100570.78;123400;1105;104373;-81
2021/03/07 06:56:03;;;;;;;8.48;7.28;;;;;;;2.88;62.98;100568.14;123317;1105;104345;-82
2021/03/07 06:58:29;;;;;;;8.20;6.30;;;;;;;2.86;63.26;100581.28;123249;1105;104377;-81
2021/03/07 07:00:55;;;;;;;6.22;5.72;;;;;;;2.87;63.70;100561.14;123391;1105;104338;-83
2021/03/07 07:03:23;;;;;;;7.13;6.47;;;;;;;2.90;63.38;100571.67;123303;1106;104309;-81
2021/03/07 07:05:51;;;;;;;6.00;5.33;;;;;;;2.87;63.79;100571.66;123217;1105;104379;-81
2021/03/07 07:08:42;;;;;;;6.60;5.70;;;;;;;2.89;62.99;100560.25;123199;1105;104389;-84
2021/03/07 07:11:09;;;;;;;6.28;5.67;;;;;;;2.84;62.83;100554.11;122973;1105;104396;-82
2021/03/07 07:13:48;;;;;;;9.10;5.85;;;;;;;2.77;62.52;100529.51;123099;1105;104293;-87
2021/03/07 07:16:33;;;;;;;6.20;5.30;;;;;;;2.92;62.75;100564.66;122952;1105;104412;-81
2021/03/07 07:19:01;;;;;;;6.10;5.53;;;;;;;2.87;61.87;100556.75;122993;1106;104350;-82
2021/03/07 07:21:27;;;;;;;5.67;5.17;;;;;;;2.89;61.33;100554.12;123148;1105;104300;-81
2021/03/07 07:24:04;;;;;;;5.90;5.40;;;;;;;2.88;61.35;100560.25;123223;1105;104303;-82
2021/03/07 07:26:31;;;;;;;6.80;5.33;;;;;;;2.82;60.16;100554.06;123092;1105;104344;-80
2021/03/07 07:28:57;;;;;;;5.47;4.97;;;;;;;2.84;59.91;100557.61;123069;1105;104255;-83
2021/03/07 07:31:50;;;;;;;6.20;5.70;;;;;;;2.83;60.46;100547.95;123108;1105;104309;-83
2021/03/07 07:34:33;;;;;;;6.78;5.53;;;;;;;2.88;60.27;100547.09;123060;1106;104258;-83
2021/03/07 07:37:35;;;;;;;6.23;5.73;;;;;;;2.84;58.39;100546.22;122849;1109;104786;-84
2021/03/07 07:40:05;;;;;;;9.80;7.53;;;;;;;2.84;58.55;100536.56;123212;1105;104358;-83
2021/03/07 07:43:12;;;;;;;6.70;5.03;;;;;;;2.83;58.13;100537.42;123103;1109;105003;-82
2021/03/07 07:45:44;;;;;;;6.97;6.37;;;;;;;2.84;58.60;100540.95;122856;1109;104294;-80
2021/03/07 07:48:11;;;;;;;7.33;6.60;;;;;;;2.88;57.86;100536.58;123100;1105;104239;-82
2021/03/07 07:50:39;;;;;;;5.97;5.47;;;;;;;2.81;57.77;100528.66;123208;1105;104392;-82
2021/03/07 07:53:12;;;;;;;6.75;5.35;;;;;;;2.85;57.92;100540.06;123302;1105;104810;-81
2021/03/07 07:55:43;;;;;;;5.83;5.20;;;;;;;2.90;57.40;100533.09;123096;1105;104304;-82
2021/03/07 07:58:10;;;;;;;5.20;4.85;;;;;;;2.88;57.83;100532.22;123147;1105;104673;-80
2021/03/07 08:00:51;;;;;;;7.17;6.47;;;;;;;2.89;57.49;100541.84;123195;1105;104834;-83
2021/03/07 08:03:40;;;;;;;6.45;5.87;;;;;;;2.88;57.56;100531.31;123126;1105;104759;-83
2021/03/07 08:06:32;;;;;;;9.97;6.53;;;;;;;2.92;57.61;100540.98;123297;1105;104297;-84
2021/03/07 08:08:59;;;;;;;6.70;6.10;;;;;;;2.90;57.84;100522.56;123136;1105;104786;-81
2021/03/07 08:11:25;;;;;;;5.87;4.93;;;;;;;2.89;57.52;100533.08;123206;1105;105069;-85
2021/03/07 08:14:06;;;;;;;6.22;5.60;;;;;;;2.89;57.18;100519.93;123079;1108;106100;-82
2021/03/07 08:16:40;;;;;;;7.55;5.80;;;;;;;2.92;57.05;100519.94;123120;1109;104794;-84
2021/03/07 08:19:09;;;;;;;6.75;5.15;;;;;;;2.90;55.78;100513.81;122965;1106;104211;-82
2021/03/07 08:21:55;;;;;;;5.97;5.37;;;;;;;2.93;55.62;100516.45;123115;1105;104211;-81
2021/03/07 08:24:23;;;;;;;5.08;4.67;;;;;;;2.90;56.52;100527.83;123286;1105;104237;-82
2021/03/07 08:26:50;;;;;;;6.75;6.15;;;;;;;2.94;56.61;100515.59;123387;1105;104277;-82
2021/03/07 08:29:48;;;;;;;6.90;6.27;;;;;;;3.04;56.95;100520.05;123281;1105;104602;-84
2021/03/07 08:32:33;;;;;;;5.70;5.30;;;;;;;3.13;56.54;100524.47;123589;1105;104130;-81
2021/03/07 08:35:22;;;;;;;8.10;7.40;;;;;;;3.12;56.32;100512.17;123550;1106;104424;-81
2021/03/07 08:38:15;;;;;;;5.60;5.05;;;;;;;3.08;55.74;100521.82;123193;1105;104229;-86
2021/03/07 08:40:43;;;;;;;7.70;7.00;;;;;;;3.08;56.10;100513.03;123267;1105;104306;-84
2021/03/07 08:43:22;;;;;;;6.77;6.07;;;;;;;3.08;55.55;100503.41;123381;1105;104258;-83
2021/03/07 08:46:02;;;;;;;6.75;5.97;;;;;;;3.11;55.57;100508.67;123537;1105;104720;-85
2021/03/07 08:48:29;;;;;;;4.62;4.22;;;;;;;3.08;54.91;100505.14;123750;1105;104328;-84
2021/03/07 08:51:00;;;;;;;8.83;6.77;;;;;;;3.09;54.74;100507.80;123512;1105;104724;-83
2021/03/07 08:53:30;;;;;;;6.00;5.50;;;;;;;3.05;55.47;100511.25;123184;1105;104254;-87
2021/03/07 08:55:57;;;;;;;6.87;6.20;;;;;;;3.09;55.25;100514.80;123347;1105;105748;-83
2021/03/07 08:58:25;;;;;;;7.67;5.05;;;;;;;3.05;54.36;100498.10;123521;1105;104625;-86
2021/03/07 09:01:01;;;;;;;4.57;4.17;;;;;;;2.99;54.73;100512.11;123365;1106;104370;-81
2021/03/07 09:03:33;;;;;;;6.30;5.73;;;;;;;2.94;55.53;100500.67;123897;1105;104255;-81
2021/03/07 09:06:14;;;;;;;5.17;4.78;;;;;;;2.89;55.39;100490.99;123181;1109;104329;-83
2021/03/07 09:09:05;;;;;;;6.30;4.60;;;;;;;2.90;55.49;100495.39;122768;1110;104499;-80
2021/03/07 09:11:33;;;;;;;9.67;6.10;;;;;;;2.89;55.38;100501.52;122719;1112;104482;-80
2021/03/07 09:14:14;;;;;;;6.20;5.60;;;;;;;2.84;56.15;100510.26;122816;1112;104408;-82
2021/03/07 09:16:46;;;;;;;7.42;5.80;;;;;;;2.84;56.24;100488.34;122649;1111;104361;-88
2021/03/07 09:19:33;;;;;;;6.00;5.40;;;;;;;2.82;55.97;100480.42;122456;1112;104964;-80
2021/03/07 09:22:13;;;;;;;9.68;6.65;;;;;;;2.85;56.90;100495.34;122458;1112;104433;-80
2021/03/07 09:24:56;;;;;;;10.45;6.70;;;;;;;2.84;56.04;100476.06;122682;1112;104411;-82
2021/03/07 09:27:25;;;;;;;8.17;6.73;;;;;;;2.87;56.65;100479.60;122693;1112;104268;-82
2021/03/07 09:29:59;;;;;;;5.83;4.87;;;;;;;2.91;56.64;100466.46;122922;1112;104425;-84
2021/03/07 09:32:49;;;;;;;5.85;5.37;;;;;;;2.87;56.79;100482.23;122693;1112;104469;-86
2021/03/07 09:35:32;;;;;;;5.87;5.37;;;;;;;2.83;55.94;100479.56;122679;1112;105085;-83
2021/03/07 09:38:07;;;;;;;7.20;5.07;;;;;;;2.82;56.24;100479.55;122732;1112;104341;-83
2021/03/07 09:40:45;;;;;;;7.03;5.20;;;;;;;2.86;56.48;100480.46;122897;1115;104381;-89
2021/03/07 09:43:15;;;;;;;6.17;5.53;;;;;;;2.89;55.93;100469.95;122927;1112;105169;-84
2021/03/07 09:45:50;;;;;;;5.87;5.40;;;;;;;2.84;56.18;100469.94;122872;1109;104236;-83
2021/03/07 09:48:23;;;;;;;5.60;5.17;;;;;;;2.78;56.96;100451.48;123010;1109;104407;-88
2021/03/07 09:50:50;;;;;;;7.67;5.77;;;;;;;2.80;56.96;100462.87;123076;1109;105035;-84
2021/03/07 09:53:17;;;;;;;5.45;4.95;;;;;;;2.79;56.46;100469.89;123372;1105;104300;-83
2021/03/07 09:55:51;;;;;;;7.47;6.70;;;;;;;2.81;57.15;100470.80;123342;1105;104498;-84
2021/03/07 09:58:17;;;;;;;10.40;5.95;;;;;;;2.84;57.63;100473.44;123626;1105;104252;-83
2021/03/07 10:00:50;;;;;;;6.33;5.78;;;;;;;2.83;57.17;100465.55;123418;1105;104245;-85
2021/03/07 10:03:18;;;;;;;5.30;4.90;;;;;;;2.86;57.54;100473.44;123463;1105;104284;-84
2021/03/07 10:06:21;;;;;;;6.33;5.17;;;;;;;2.84;56.83;100467.31;123492;1105;104374;-83
2021/03/07 10:09:06;;;;;;;6.70;6.00;;;;;;;2.89;57.56;100462.92;123181;1105;104248;-83
2021/03/07 10:11:33;;;;;;;7.63;6.17;;;;;;;2.93;57.43;100453.31;123569;1105;104332;-82
2021/03/07 10:14:05;;;;;;;8.17;6.67;;;;;;;2.90;57.67;100454.17;123252;1105;105024;-81
2021/03/07 10:16:34;;;;;;;7.23;6.63;;;;;;;2.93;57.49;100462.11;123184;1106;104336;-80
2021/03/07 10:19:20;;;;;;;7.80;7.07;;;;;;;2.90;57.59;100454.17;123399;1105;104290;-85
2021/03/07 10:21:47;;;;;;;8.50;6.20;;;;;;;2.92;57.95;100455.08;123277;1105;104301;-83
2021/03/07 10:24:16;;;;;;;8.17;7.37;;;;;;;2.95;58.34;100448.95;123331;1105;104262;-83
2021/03/07 10:26:47;;;;;;;9.80;7.47;;;;;;;2.97;58.08;100452.45;123436;1105;104232;-84
2021/03/07 10:29:20;;;;;;;6.40;5.80;;;;;;;2.97;58.73;100449.83;123389;1105;104296;-81
2021/03/07 10:32:02;;;;;;;7.28;5.95;;;;;;;2.92;57.50;100451.55;123315;1105;104230;-84
2021/03/07 10:34:35;;;;;;;6.77;5.63;;;;;;;2.90;58.04;100458.56;123347;1105;104317;-83
2021/03/07 10:37:03;;;;;;;6.25;5.72;;;;;;;2.94;58.66;100460.34;123312;1105;104389;-83
2021/03/07 10:39:30;;;;;;;7.60;5.60;;;;;;;2.93;58.37;100446.32;123066;1105;104454;-84
2021/03/07 10:42:12;;;;;;;6.22;5.08;;;;;;;2.92;58.92;100459.44;123418;1106;104338;-81
2021/03/07 10:44:43;;;;;;;8.60;7.03;;;;;;;2.94;58.59;100460.34;123308;1105;104245;-85
2021/03/07 10:47:20;;;;;;;7.97;5.90;;;;;;;2.91;58.61;100460.33;123258;1105;104906;-81
2021/03/07 10:49:49;;;;;;;7.85;6.60;;;;;;;2.94;58.72;100449.82;123314;1105;104960;-85
2021/03/07 10:52:17;;;;;;;10.00;5.83;;;;;;;2.97;58.65;100448.09;123433;1105;104629;-82
2021/03/07 10:54:58;;;;;;;11.03;7.13;;;;;;;3.00;58.40;100455.13;123331;1105;105671;-84
2021/03/07 10:57:24;;;;;;;6.75;5.85;;;;;;;3.04;58.71;100437.58;123364;1105;104369;-86
2021/03/07 10:59:54;;;;;;;7.40;6.42;;;;;;;3.02;58.50;100440.21;123446;1105;104143;-83
2021/03/07 11:02:20;;;;;;;8.27;7.47;;;;;;;3.05;58.58;100434.95;123286;1106;104242;-81
2021/03/07 11:04:47;;;;;;;7.27;6.57;;;;;;;3.05;58.81;100437.58;123514;1106;104360;-84
2021/03/07 11:07:14;;;;;;;9.20;7.00;;;;;;;3.09;59.13;100442.02;123344;1105;104405;-85
2021/03/07 11:09:40;;;;;;;14.25;8.80;;;;;;;3.05;58.40;100441.98;123256;1105;104272;-93
2021/03/07 11:12:07;;;;;;;9.48;6.37;;;;;;;3.00;58.82;100420.92;123307;1105;104584;-82
2021/03/07 11:14:34;;;;;;;9.25;8.10;;;;;;;2.95;58.43;100427.91;123122;1106;104348;-82
2021/03/07 11:17:01;;;;;;;8.28;7.50;;;;;;;2.91;58.46;100427.00;123039;1105;104376;-81
2021/03/07 11:19:42;;;;;;;7.50;6.70;;;;;;;2.90;58.71;100422.61;122700;1108;104389;-80
2021/03/07 11:22:09;;;;;;;6.47;5.83;;;;;;;2.92;58.33;100425.23;122781;1109;104562;-82
2021/03/07 11:24:36;;;;;;;5.93;5.43;;;;;;;2.88;59.05;100423.47;122680;1109;104565;-82
2021/03/07 11:27:02;;;;;;;8.05;6.42;;;;;;;2.88;58.86;100415.58;122970;1109;104764;-80
2021/03/07 11:29:29;;;;;;;10.00;7.53;;;;;;;2.96;58.89;100417.39;122803;1108;104427;-84
2021/03/07 11:32:08;;;;;;;11.63;8.33;;;;;;;2.99;58.53;100401.61;123160;1109;104418;-83
2021/03/07 11:34:35;;;;;;;7.67;6.55;;;;;;;3.03;58.17;100404.28;123542;1108;104213;-84
2021/03/07 11:37:17;;;;;;;9.03;6.80;;;;;;;3.07;58.17;100401.65;123895;1109;104878;-90
2021/03/07 11:39:44;;;;;;;10.10;7.20;;;;;;;3.11;58.15;100400.79;123955;1109;104745;-82